Time;durP1;ratioP1;P1;durP2;ratioP2;P2;SDS_P1;SDS_P2;PMS_P1;PMS_P2;Temp;Humidity;BMP_temperature;BMP_pressure;BME280_temperature;BME280_humidity;BME280_pressure;Samples;Min_cycle;Max_cycle;Signal;HPM_P1;HPM_P2
2023/01/14 00:03:44;;;;;;;31.02;4.30;;;;;;;9.36;87.76;100623.31;8426362;28;20397;-53
2023/01/14 00:07:44;;;;;;;30.10;4.00;;;;;;;9.45;87.64;100624.34;8426527;28;20496;-54
2023/01/14 00:11:46;;;;;;;25.52;3.33;;;;;;;9.38;88.41;100620.47;8425577;28;20560;-55
2023/01/14 00:15:53;;;;;;;29.17;3.88;;;;;;;9.29;88.99;100618.56;8425915;28;20067;-54
2023/01/14 00:19:53;;;;;;;25.10;3.67;;;;;;;9.24;88.92;100618.13;8425932;28;20040;-54
2023/01/14 00:23:54;;;;;;;36.72;3.58;;;;;;;9.18;89.69;100618.63;8426140;28;20081;-53
2023/01/14 00:27:54;;;;;;;30.23;4.13;;;;;;;9.09;90.23;100619.41;8425739;28;20047;-53
2023/01/14 00:31:57;;;;;;;26.88;3.90;;;;;;;9.02;91.22;100623.56;8425993;28;20505;-54
2023/01/14 00:35:58;;;;;;;25.00;3.80;;;;;;;9.09;90.43;100620.22;8426141;28;20044;-53
2023/01/14 00:39:58;;;;;;;29.10;3.45;;;;;;;8.98;91.16;100617.59;8425315;28;20040;-54
2023/01/14 00:43:59;;;;;;;31.05;3.65;;;;;;;8.95;91.18;100627.78;8425845;28;20079;-55
2023/01/14 00:48:00;;;;;;;33.38;4.57;;;;;;;8.95;91.19;100633.16;8425541;28;20036;-54
2023/01/14 00:52:02;;;;;;;38.20;4.88;;;;;;;8.99;91.11;100638.19;8425186;28;20048;-54
2023/01/14 00:56:03;;;;;;;38.72;4.20;;;;;;;9.02;91.07;100645.16;8425280;28;20063;-54
2023/01/14 01:00:04;;;;;;;33.28;4.40;;;;;;;9.06;90.72;100638.53;8424831;28;20028;-59
2023/01/14 01:04:06;;;;;;;27.88;4.78;;;;;;;9.08;90.68;100652.72;8424904;28;20153;-57
2023/01/14 01:08:11;;;;;;;24.05;4.07;;;;;;;9.12;90.02;100651.50;8424650;28;20044;-58
2023/01/14 01:12:11;;;;;;;24.33;3.17;;;;;;;9.25;89.12;100652.19;8424523;28;20032;-58
2023/01/14 01:16:15;;;;;;;30.60;4.45;;;;;;;9.35;88.75;100650.41;8424448;28;20040;-58
2023/01/14 01:20:15;;;;;;;29.02;3.92;;;;;;;9.42;88.20;100646.19;8424462;28;20042;-59
2023/01/14 01:24:16;;;;;;;27.10;4.32;;;;;;;9.47;87.49;100658.34;8424349;28;20044;-58
2023/01/14 01:28:17;;;;;;;24.95;4.10;;;;;;;9.47;87.15;100652.94;8424129;28;20063;-58
2023/01/14 01:32:17;;;;;;;29.10;3.80;;;;;;;9.46;87.14;100655.78;8406867;28;20040;-58
2023/01/14 01:36:21;;;;;;;26.02;3.78;;;;;;;9.38;87.46;100658.25;8421533;28;20522;-60
2023/01/14 01:40:22;;;;;;;;;;;;;;;9.36;87.62;100662.91;8422184;28;20551;-59
2023/01/14 01:48:42;;;;;;;25.17;3.35;;;;;;;9.32;87.12;100669.56;8351035;27;20380;-58
2023/01/14 01:52:44;;;;;;;28.90;4.20;;;;;;;9.20;88.05;100665.19;8353895;28;20191;-59
2023/01/14 01:56:46;;;;;;;30.67;4.10;;;;;;;9.11;88.51;100663.25;8354139;28;20083;-59
2023/01/14 02:00:46;;;;;;;19.55;3.55;;;;;;;9.01;88.96;100660.50;8354153;28;20033;-59
2023/01/14 02:04:47;;;;;;;25.60;3.72;;;;;;;9.01;88.84;100665.88;8353596;28;20497;-58
2023/01/14 02:08:51;;;;;;;16.88;3.40;;;;;;;8.91;88.95;100653.28;8353399;28;20462;-59
2023/01/14 02:22:12;;;;;;;25.50;2.78;;;;;;;8.88;88.83;100650.84;8324300;28;20478;-58
2023/01/14 02:26:37;;;;;;;31.90;3.67;;;;;;;8.85;88.66;100648.41;8320854;28;20050;-57
2023/01/14 02:31:07;;;;;;;26.15;3.63;;;;;;;8.82;88.87;100643.25;8321041;28;20095;-59
2023/01/14 02:35:24;;;;;;;25.55;3.72;;;;;;;8.86;88.86;100650.09;8321165;28;20160;-59
2023/01/14 02:39:33;;;;;;;27.92;4.13;;;;;;;8.90;88.67;100646.16;8320217;28;20417;-60
2023/01/14 02:44:16;;;;;;;21.35;3.15;;;;;;;8.81;89.10;100642.41;8321324;28;20091;-60
2023/01/14 02:48:07;;;;;;;24.90;3.75;;;;;;;8.78;89.00;100636.41;8320180;28;20121;-57
2023/01/14 02:52:11;;;;;;;26.35;3.65;;;;;;;8.73;89.14;100631.41;8320161;28;20053;-57
2023/01/14 02:56:12;;;;;;;32.13;4.38;;;;;;;8.65;89.67;100614.13;8326410;28;20042;-58
2023/01/14 03:00:26;;;;;;;27.33;3.22;;;;;;;8.56;89.56;100598.72;8318631;28;20113;-52
2023/01/14 03:09:25;;;;;;;25.55;3.35;;;;;;;8.33;90.82;100588.97;8323770;28;20468;-53
2023/01/14 03:17:58;;;;;;;27.15;2.97;;;;;;;8.26;90.96;100574.31;8412567;27;20507;-56
2023/01/14 03:22:01;;;;;;;23.58;3.67;;;;;;;8.29;90.52;100565.97;8404556;27;20028;-55
2023/01/14 03:26:05;;;;;;;16.05;3.08;;;;;;;8.32;90.64;100557.66;8403456;27;20059;-55
2023/01/14 03:30:10;;;;;;;29.70;3.53;;;;;;;8.29;90.85;100547.13;8403227;27;20044;-55
2023/01/14 03:34:15;;;;;;;35.80;4.18;;;;;;;8.34;90.47;100550.28;8407738;28;20103;-54
2023/01/14 03:38:25;;;;;;;23.40;2.80;;;;;;;8.39;89.61;100534.59;8400237;27;20052;-55
2023/01/14 03:42:31;;;;;;;22.55;2.45;;;;;;;8.34;89.87;100539.50;8401844;27;20048;-54
2023/01/14 03:46:32;;;;;;;18.88;2.60;;;;;;;8.34;90.41;100544.88;8403407;27;20044;-56
2023/01/14 03:50:45;;;;;;;22.20;2.97;;;;;;;8.35;89.66;100547.47;8402889;27;20094;-55
2023/01/14 03:54:52;;;;;;;23.60;4.05;;;;;;;8.34;89.89;100540.38;8391778;27;20115;-59
2023/01/14 03:59:00;;;;;;;26.33;3.85;;;;;;;8.28;89.81;100534.63;8402524;27;20036;-60
2023/01/14 04:03:05;;;;;;;18.75;3.00;;;;;;;8.27;89.28;100527.53;8405255;27;20036;-60
2023/01/14 04:07:06;;;;;;;20.15;3.38;;;;;;;8.28;89.37;100521.16;8401802;27;20075;-59
2023/01/14 04:11:08;;;;;;;29.33;3.35;;;;;;;8.28;89.42;100513.06;8402487;27;20094;-60
2023/01/14 04:15:25;;;;;;;14.43;2.83;;;;;;;8.30;89.27;100514.69;8402085;27;20123;-60
2023/01/14 04:19:26;;;;;;;22.55;3.13;;;;;;;8.29;89.51;100509.41;8401685;27;20135;-61
2023/01/14 04:23:26;;;;;;;16.90;2.85;;;;;;;8.33;89.53;100508.19;8400714;27;20382;-60
2023/01/14 04:27:27;;;;;;;14.63;2.60;;;;;;;8.31;89.95;100507.44;8389022;27;20060;-60
2023/01/14 04:31:27;;;;;;;27.65;3.05;;;;;;;8.05;90.58;100501.47;8379822;28;20050;-58
2023/01/14 04:35:28;;;;;;;23.95;3.08;;;;;;;7.66;93.51;100489.38;8379534;28;20037;-60
2023/01/14 04:39:28;;;;;;;21.88;2.83;;;;;;;7.55;94.66;100488.53;8377133;28;20119;-57
2023/01/14 04:43:29;;;;;;;18.58;2.95;;;;;;;7.53;95.14;100477.03;8376291;28;20510;-58
2023/01/14 04:47:30;;;;;;;28.80;3.45;;;;;;;7.55;95.14;100464.34;8378926;28;20510;-57
2023/01/14 04:51:30;;;;;;;15.63;2.30;;;;;;;7.57;95.13;100468.59;8378964;28;20047;-58
2023/01/14 04:55:31;;;;;;;17.92;2.92;;;;;;;7.62;94.95;100455.66;8378799;28;20043;-58
2023/01/14 04:59:32;;;;;;;23.73;3.85;;;;;;;7.63;94.73;100454.66;8386788;28;20090;-54
2023/01/14 05:03:32;;;;;;;23.40;3.00;;;;;;;7.65;94.72;100433.00;8382924;28;20485;-61
2023/01/14 05:07:32;;;;;;;28.50;3.40;;;;;;;7.62;95.59;100435.94;8394613;28;20543;-58
2023/01/14 05:11:33;;;;;;;20.25;3.20;;;;;;;7.50;95.86;100432.44;8393772;28;20032;-58
2023/01/14 05:15:38;;;;;;;24.10;3.25;;;;;;;7.44;96.76;100424.84;8394782;28;20478;-58
2023/01/14 05:19:39;;;;;;;19.88;3.35;;;;;;;7.52;96.33;100422.41;8394533;28;20127;-56
2023/01/14 05:23:39;;;;;;;18.92;2.40;;;;;;;7.51;96.50;100420.69;8385532;28;20052;-58
2023/01/14 05:27:40;;;;;;;21.40;3.10;;;;;;;7.60;95.90;100417.25;8328129;28;20037;-59
2023/01/14 05:31:40;;;;;;;22.35;2.90;;;;;;;7.67;95.21;100410.41;8344884;28;20037;-58
2023/01/14 05:35:41;;;;;;;22.35;2.63;;;;;;;7.57;95.73;100395.97;8361483;28;20056;-53
2023/01/14 05:39:41;;;;;;;17.95;3.22;;;;;;;7.52;95.92;100392.81;8375868;28;20033;-57
2023/01/14 05:48:02;;;;;;;21.60;2.90;;;;;;;7.55;96.15;100367.50;8377220;28;20386;-58
2023/01/14 05:52:03;;;;;;;21.80;3.30;;;;;;;7.60;96.34;100360.75;8376800;28;20041;-57
2023/01/14 05:56:03;;;;;;;18.88;3.08;;;;;;;7.67;95.91;100361.97;8377653;28;20063;-59
2023/01/14 06:00:05;;;;;;;19.67;3.03;;;;;;;7.76;95.84;100345.09;8358572;28;20071;-59
2023/01/14 06:08:44;;;;;;;25.63;2.80;;;;;;;7.84;95.44;100331.81;8320935;28;20048;-57
2023/01/14 06:13:01;;;;;;;22.60;3.35;;;;;;;7.85;96.38;100320.09;8321452;28;20049;-58
2023/01/14 06:17:06;;;;;;;17.15;2.03;;;;;;;7.95;95.75;100306.69;8317210;28;20390;-58
2023/01/14 06:21:09;;;;;;;18.52;2.72;;;;;;;8.11;95.08;100300.91;8253158;28;20061;-57
2023/01/14 06:25:09;;;;;;;13.35;2.72;;;;;;;8.32;93.13;100296.41;8268867;28;20129;-57
2023/01/14 06:29:11;;;;;;;15.27;2.95;;;;;;;8.48;91.34;100277.94;8272338;28;20580;-55
2023/01/14 06:33:12;;;;;;;13.73;2.90;;;;;;;8.83;88.12;100270.28;8286358;28;20061;-58
2023/01/14 06:37:12;;;;;;;14.82;2.03;;;;;;;8.98;86.30;100268.94;8311885;28;20103;-58
2023/01/14 06:41:13;;;;;;;20.08;2.63;;;;;;;9.06;85.65;100264.53;8274667;28;20695;-58
2023/01/14 06:45:13;;;;;;;12.20;2.00;;;;;;;9.02;85.68;100246.09;8287745;28;20563;-59
2023/01/14 06:49:13;;;;;;;19.10;2.38;;;;;;;9.09;85.98;100239.16;8287185;28;20034;-58
2023/01/14 06:53:14;;;;;;;20.45;2.67;;;;;;;9.12;85.69;100233.50;8271917;28;20041;-59
2023/01/14 06:57:14;;;;;;;17.92;2.30;;;;;;;9.09;86.36;100231.91;8282220;28;20042;-58
2023/01/14 07:01:15;;;;;;;22.02;2.50;;;;;;;9.09;86.27;100214.91;8263486;28;20049;-58
2023/01/14 07:05:16;;;;;;;19.52;2.47;;;;;;;9.16;85.98;100211.50;8286666;28;20046;-58
2023/01/14 07:09:16;;;;;;;17.08;3.35;;;;;;;9.15;86.21;100204.41;8254399;28;20034;-58
2023/01/14 07:13:18;;;;;;;17.58;2.55;;;;;;;9.12;87.67;100209.22;8243671;28;20408;-58
2023/01/14 07:17:19;;;;;;;22.15;4.07;;;;;;;9.10;88.61;100208.50;8246909;28;20093;-57
2023/01/14 07:21:19;;;;;;;23.10;2.75;;;;;;;9.01;90.18;100194.03;8239978;28;20035;-58
2023/01/14 07:25:19;;;;;;;19.70;2.20;;;;;;;8.91;91.70;100178.81;8250239;28;20078;-58
2023/01/14 07:29:20;;;;;;;18.92;2.72;;;;;;;8.91;93.02;100166.16;8244793;28;20396;-59
2023/01/14 07:33:21;;;;;;;15.25;2.20;;;;;;;9.00;92.88;100151.84;8252726;28;20054;-57
2023/01/14 07:37:21;;;;;;;15.93;2.08;;;;;;;8.93;93.78;100128.28;8249943;28;20039;-57
2023/01/14 07:41:22;;;;;;;9.98;2.15;;;;;;;9.04;93.88;100112.00;8241444;28;20042;-58
2023/01/14 07:45:24;;;;;;;5.40;1.27;;;;;;;9.10;93.52;100082.63;8249929;28;20129;-57
2023/01/14 07:49:25;;;;;;;8.02;1.42;;;;;;;9.26;92.91;100087.44;8251384;28;20458;-58
2023/01/14 07:53:25;;;;;;;8.15;1.63;;;;;;;9.30;92.94;100108.59;8260979;28;20046;-58
2023/01/14 07:57:26;;;;;;;7.47;0.90;;;;;;;9.41;92.06;100102.19;8260273;28;20035;-59
2023/01/14 08:01:26;;;;;;;5.57;0.98;;;;;;;9.49;91.63;100103.19;8254111;28;20039;-58
2023/01/14 08:05:27;;;;;;;6.82;1.00;;;;;;;9.60;91.36;100102.16;8256034;28;20046;-58
2023/01/14 08:09:28;;;;;;;3.13;0.75;;;;;;;9.64;90.90;100098.22;8245544;28;20042;-58
2023/01/14 08:13:30;;;;;;;2.10;0.73;;;;;;;9.73;90.36;100067.66;8262315;28;20073;-56
2023/01/14 08:17:31;;;;;;;1.83;0.45;;;;;;;9.75;90.31;100050.28;8261456;28;20053;-59
2023/01/14 08:21:31;;;;;;;2.67;0.40;;;;;;;9.82;90.22;100048.69;8243795;28;20043;-58
2023/01/14 08:25:31;;;;;;;1.88;0.55;;;;;;;9.91;89.36;100038.84;8241851;28;20548;-59
2023/01/14 08:29:32;;;;;;;3.55;0.70;;;;;;;9.95;89.50;100042.97;8243931;28;20130;-58
2023/01/14 08:33:34;;;;;;;1.17;0.40;;;;;;;10.13;88.59;100025.03;8251759;28;20054;-55
2023/01/14 08:37:35;;;;;;;1.25;0.50;;;;;;;10.12;88.79;100001.69;8239525;28;20047;-53
2023/01/14 08:41:36;;;;;;;3.35;0.47;;;;;;;10.09;89.33;100010.09;8239151;28;20100;-55
2023/01/14 08:45:36;;;;;;;2.50;0.52;;;;;;;10.19;89.20;99997.41;8254534;28;20118;-54
2023/01/14 08:49:37;;;;;;;1.60;0.30;;;;;;;10.13;89.79;99970.16;8247793;28;20523;-54
2023/01/14 08:53:38;;;;;;;2.28;0.40;;;;;;;10.21;89.19;99976.47;8236473;28;20504;-54
2023/01/14 08:57:39;;;;;;;5.35;0.50;;;;;;;10.31;88.30;99958.34;8241512;28;20042;-53
2023/01/14 09:01:39;;;;;;;1.60;0.40;;;;;;;10.29;89.03;99954.97;8244524;28;20049;-54
2023/01/14 09:05:40;;;;;;;2.00;0.57;;;;;;;10.35;88.65;99932.75;8255575;28;20046;-55
2023/01/14 09:18:21;;;;;;;4.32;0.50;;;;;;;10.30;89.93;99908.03;8261838;28;20046;-56
2023/01/14 09:22:24;;;;;;;2.17;0.57;;;;;;;10.27;90.60;99896.72;8251323;28;20129;-54
2023/01/14 09:26:25;;;;;;;1.33;0.50;;;;;;;10.30;90.22;99899.94;8253395;28;20153;-55
2023/01/14 09:30:26;;;;;;;3.13;0.63;;;;;;;10.36;90.30;99899.31;8225942;28;20039;-55
2023/01/14 09:34:27;;;;;;;3.20;0.68;;;;;;;10.43;89.97;99877.94;8204040;28;20042;-54
2023/01/14 09:38:28;;;;;;;4.85;0.88;;;;;;;10.50;89.69;99877.16;8249165;28;20034;-56
2023/01/14 09:46:41;;;;;;;4.10;0.90;;;;;;;10.68;89.10;99828.47;8388893;27;20390;-55
2023/01/14 09:51:09;;;;;;;4.95;0.60;;;;;;;10.80;88.61;99838.03;8363628;28;20054;-55
2023/01/14 09:55:29;;;;;;;6.40;0.63;;;;;;;10.86;88.55;99840.94;8319688;28;20438;-55
2023/01/14 09:59:39;;;;;;;1.13;0.50;;;;;;;11.03;87.96;99806.72;8322454;28;20489;-55
2023/01/14 10:03:51;;;;;;;3.17;0.70;;;;;;;11.20;86.94;99800.41;8328996;28;20045;-55
2023/01/14 10:07:51;;;;;;;5.72;0.75;;;;;;;11.37;86.57;99786.78;8295964;28;20495;-55
2023/01/14 10:11:53;;;;;;;3.70;0.77;;;;;;;11.31;86.58;99787.41;8296629;28;20474;-55
2023/01/14 10:15:59;;;;;;;5.28;0.50;;;;;;;11.27;86.95;99775.25;8309105;28;20041;-55
2023/01/14 10:20:10;;;;;;;7.25;0.90;;;;;;;11.24;87.42;99778.28;8330217;28;20037;-59
2023/01/14 10:24:13;;;;;;;4.82;0.70;;;;;;;11.26;87.34;99760.00;8322741;28;20052;-57
2023/01/14 10:28:16;;;;;;;6.40;0.52;;;;;;;11.33;87.25;99752.94;8330269;28;20045;-57
2023/01/14 10:32:21;;;;;;;6.10;0.60;;;;;;;11.36;87.43;99744.50;8327693;28;20047;-58
2023/01/14 10:36:23;;;;;;;3.05;0.60;;;;;;;11.13;90.32;99745.25;8330670;28;20041;-56
2023/01/14 10:40:26;;;;;;;3.83;0.80;;;;;;;10.97;92.11;99737.91;8320205;28;20127;-59
2023/01/14 10:44:29;;;;;;;4.05;0.80;;;;;;;10.93;94.11;99723.03;8324468;28;20129;-59
2023/01/14 10:48:44;;;;;;;4.27;0.80;;;;;;;10.88;95.69;99709.13;8330753;28;20076;-58
2023/01/14 10:52:44;;;;;;;4.50;0.70;;;;;;;10.79;97.90;99699.28;8333854;28;20037;-55
2023/01/14 10:56:49;;;;;;;2.47;0.63;;;;;;;10.79;98.69;99690.31;8331665;28;20037;-55
2023/01/14 11:00:50;;;;;;;6.65;0.60;;;;;;;10.80;100.00;99673.94;8324137;28;20064;-55
2023/01/14 11:04:51;;;;;;;3.33;1.10;;;;;;;10.83;100.00;99667.38;8323789;28;20044;-55
2023/01/14 11:08:53;;;;;;;2.22;0.60;;;;;;;10.80;100.00;99655.00;8323171;28;20065;-55
2023/01/14 11:13:13;;;;;;;1.33;0.52;;;;;;;10.76;100.00;99634.72;8323750;28;20037;-56
2023/01/14 11:17:24;;;;;;;3.58;0.70;;;;;;;10.73;100.00;99624.25;8316663;28;20111;-55
2023/01/14 11:21:27;;;;;;;3.50;0.80;;;;;;;10.79;100.00;99614.63;8311179;28;20041;-55
2023/01/14 11:25:28;;;;;;;1.15;0.50;;;;;;;10.78;100.00;99605.69;8301426;28;20292;-55
2023/01/14 11:29:33;;;;;;;1.20;0.30;;;;;;;10.74;100.00;99598.88;8322311;28;20061;-55
2023/01/14 11:33:34;;;;;;;4.22;0.40;;;;;;;10.77;100.00;99582.34;8298464;28;20570;-55
2023/01/14 11:37:44;;;;;;;3.92;0.45;;;;;;;10.81;100.00;99561.25;8308119;28;20041;-54
2023/01/14 11:41:45;;;;;;;3.20;0.47;;;;;;;10.86;100.00;99553.50;8309376;28;20042;-55
2023/01/14 11:45:46;;;;;;;1.00;0.40;;;;;;;10.84;100.00;99537.44;8304240;28;20121;-55
2023/01/14 11:49:47;;;;;;;2.70;0.55;;;;;;;10.87;100.00;99520.88;8318409;28;20042;-56
2023/01/14 11:53:50;;;;;;;1.42;0.52;;;;;;;10.88;100.00;99513.59;8300544;28;20042;-55
2023/01/14 11:57:50;;;;;;;1.35;0.40;;;;;;;10.90;100.00;99495.34;8293720;28;20157;-55
2023/01/14 12:01:57;;;;;;;2.05;0.77;;;;;;;10.91;100.00;99487.06;8318513;28;20041;-55
2023/01/14 12:05:58;;;;;;;1.42;0.30;;;;;;;10.94;100.00;99470.53;8323516;28;20525;-54
2023/01/14 12:10:13;;;;;;;1.02;0.40;;;;;;;11.00;100.00;99453.63;8295856;28;20045;-57
2023/01/14 12:18:52;;;;;;;4.40;0.38;;;;;;;11.01;100.00;99428.25;8298157;28;20052;-55
2023/01/14 12:23:00;;;;;;;0.47;0.20;;;;;;;10.96;100.00;99417.13;8305826;28;20037;-56
2023/01/14 12:27:05;;;;;;;0.52;0.20;;;;;;;11.04;100.00;99397.34;8283327;28;20086;-55
2023/01/14 12:31:16;;;;;;;0.20;0.20;;;;;;;11.05;100.00;99382.78;8322782;28;20481;-55
2023/01/14 12:35:19;;;;;;;0.55;0.13;;;;;;;11.07;100.00;99368.06;8312259;28;20120;-55
2023/01/14 12:48:10;;;;;;;0.20;0.20;;;;;;;11.34;100.00;99320.81;8334031;28;20491;-55
2023/01/14 12:52:13;;;;;;;0.45;0.40;;;;;;;11.39;100.00;99327.44;8290263;28;20107;-55
2023/01/14 12:56:29;;;;;;;0.55;0.20;;;;;;;11.47;99.86;99316.56;8297755;28;20033;-55
2023/01/14 13:00:33;;;;;;;0.32;0.20;;;;;;;11.45;99.92;99313.19;8292140;28;20036;-55
2023/01/14 13:04:46;;;;;;;0.10;0.10;;;;;;;11.53;99.30;99282.56;8311633;28;20470;-55
2023/01/14 13:08:51;;;;;;;0.38;0.10;;;;;;;11.59;99.49;99298.91;8313533;28;20042;-55
2023/01/14 13:12:52;;;;;;;1.25;0.15;;;;;;;11.56;100.00;99288.44;8303676;28;20080;-54
2023/01/14 13:16:59;;;;;;;0.88;0.30;;;;;;;11.60;100.00;99276.25;8305811;28;20492;-56
2023/01/14 13:21:01;;;;;;;0.60;0.35;;;;;;;11.59;100.00;99269.13;8287312;28;20045;-54
2023/01/14 13:25:16;;;;;;;0.20;0.20;;;;;;;11.58;100.00;99263.91;8288856;28;20069;-55
2023/01/14 13:29:21;;;;;;;0.35;0.30;;;;;;;11.64;100.00;99258.66;8285066;28;20046;-54
2023/01/14 13:33:27;;;;;;;1.98;0.20;;;;;;;11.65;100.00;99254.09;8288730;28;20115;-54
2023/01/14 13:37:29;;;;;;;0.30;0.20;;;;;;;11.68;100.00;99232.06;8333954;28;20091;-54
2023/01/14 13:41:46;;;;;;;0.50;0.30;;;;;;;11.71;100.00;99229.84;8337144;28;20048;-55
2023/01/14 13:45:52;;;;;;;1.95;0.40;;;;;;;11.66;100.00;99213.31;8382233;28;20088;-54
2023/01/14 13:50:05;;;;;;;0.70;0.20;;;;;;;11.67;100.00;99209.56;8320110;28;20053;-54
2023/01/14 13:54:28;;;;;;;0.55;0.28;;;;;;;11.73;100.00;99187.19;8289241;28;20409;-55
2023/01/14 14:02:48;;;;;;;4.13;0.73;;;;;;;11.72;100.00;99171.97;8322747;27;20416;-54
2023/01/14 14:06:48;;;;;;;0.50;0.28;;;;;;;11.70;100.00;99159.63;8341713;28;20870;-56
2023/01/14 14:11:11;;;;;;;0.38;0.20;;;;;;;11.75;100.00;99162.66;8337447;28;20479;-56
2023/01/14 14:15:21;;;;;;;0.70;0.20;;;;;;;11.78;100.00;99146.03;8341900;28;20051;-56
2023/01/14 14:19:26;;;;;;;0.30;0.30;;;;;;;11.82;100.00;99133.81;8344485;28;20075;-57
2023/01/14 14:23:33;;;;;;;0.40;0.30;;;;;;;11.85;100.00;99139.72;8343721;28;20060;-54
2023/01/14 14:27:40;;;;;;;0.30;0.20;;;;;;;11.85;100.00;99120.78;8341969;28;20041;-54
2023/01/14 14:31:45;;;;;;;0.13;0.10;;;;;;;11.86;100.00;99116.19;8348248;28;20044;-55
2023/01/14 14:35:46;;;;;;;0.60;0.30;;;;;;;11.93;100.00;99117.97;8322961;28;20495;-55
2023/01/14 14:39:53;;;;;;;1.50;0.30;;;;;;;12.04;99.17;99118.56;8339351;28;20041;-56
2023/01/14 14:43:59;;;;;;;1.55;0.20;;;;;;;12.12;98.13;99115.75;8342006;28;20033;-55
2023/01/14 14:48:01;;;;;;;0.35;0.25;;;;;;;12.21;97.67;99095.69;8347165;28;20300;-56
2023/01/14 14:52:19;;;;;;;0.77;0.30;;;;;;;12.27;96.79;99092.25;8347289;28;20080;-55
2023/01/14 14:56:23;;;;;;;2.42;0.30;;;;;;;12.38;95.91;99083.66;8341832;28;20049;-55
2023/01/14 15:00:24;;;;;;;0.28;0.28;;;;;;;12.44;95.59;99063.94;8345574;28;20261;-55
2023/01/14 15:04:27;;;;;;;0.30;0.25;;;;;;;12.48;94.92;99062.53;8339756;28;20052;-55
2023/01/14 15:08:33;;;;;;;1.23;0.50;;;;;;;12.49;95.40;99045.22;8331278;28;20475;-55
2023/01/14 15:12:33;;;;;;;0.47;0.28;;;;;;;12.49;94.82;99042.50;8298272;28;20034;-55
2023/01/14 15:16:34;;;;;;;0.52;0.52;;;;;;;12.59;94.94;99034.97;8290343;28;20042;-55
2023/01/14 15:20:37;;;;;;;1.08;0.20;;;;;;;12.61;95.04;99032.88;8290380;28;20068;-54
2023/01/14 15:24:40;;;;;;;2.20;0.40;;;;;;;12.60;95.37;99032.03;8304404;28;20119;-55
2023/01/14 15:28:43;;;;;;;1.52;0.50;;;;;;;12.60;95.20;99025.78;8324589;28;20037;-56
2023/01/14 15:32:45;;;;;;;0.47;0.30;;;;;;;12.65;94.75;99039.59;8323992;28;20084;-55
2023/01/14 15:37:05;;;;;;;0.93;0.30;;;;;;;12.70;94.40;99018.19;8317982;28;20076;-55
2023/01/14 15:41:08;;;;;;;0.10;0.10;;;;;;;12.77;93.79;99008.25;8327370;28;20602;-59
2023/01/14 15:45:16;;;;;;;0.20;0.10;;;;;;;12.85;92.83;99008.13;8324818;28;20053;-59
2023/01/14 15:49:20;;;;;;;1.20;0.20;;;;;;;12.93;92.45;98998.00;8321923;28;20033;-58
2023/01/14 15:57:40;;;;;;;1.23;0.20;;;;;;;12.98;91.29;98994.72;8380596;27;20392;-58
2023/01/14 16:01:56;;;;;;;0.10;0.10;;;;;;;13.04;90.59;98993.97;8358860;28;20041;-54
2023/01/14 16:05:57;;;;;;;0.20;0.10;;;;;;;13.18;89.51;98980.31;8355543;28;20083;-58
2023/01/14 16:10:03;;;;;;;0.30;0.20;;;;;;;13.10;90.94;98971.50;8364469;28;20033;-59
2023/01/14 16:14:12;;;;;;;0.70;0.20;;;;;;;13.02;92.28;98977.88;8369149;28;20049;-60
2023/01/14 16:18:17;;;;;;;0.50;0.10;;;;;;;13.02;92.75;98968.94;8375045;28;20129;-57
2023/01/14 16:22:17;;;;;;;;;;;;;;;12.90;93.85;98956.88;8380166;28;20120;-59
2023/01/14 16:26:18;;;;;;;0.32;0.20;;;;;;;12.90;94.09;98962.31;8374202;28;19932;-59
2023/01/14 16:30:19;;;;;;;0.93;0.30;;;;;;;12.90;93.73;98948.75;8374327;28;20394;-58
2023/01/14 16:34:20;;;;;;;0.20;0.15;;;;;;;12.96;93.19;98964.25;8380098;28;20091;-55
2023/01/14 16:38:20;;;;;;;0.30;0.20;;;;;;;13.00;92.40;98943.84;8386764;28;20075;-58
2023/01/14 16:42:20;;;;;;;0.57;0.10;;;;;;;13.07;92.04;98939.31;8383922;28;20036;-59
2023/01/14 16:46:21;;;;;;;0.30;0.10;;;;;;;13.13;91.38;98933.13;8379816;28;20056;-55
2023/01/14 16:50:21;;;;;;;0.45;0.20;;;;;;;13.12;91.35;98939.59;8373704;28;20044;-58
2023/01/14 16:54:22;;;;;;;0.30;0.10;;;;;;;13.31;90.45;98941.63;8375917;28;20064;-57
2023/01/14 16:58:23;;;;;;;0.30;0.15;;;;;;;13.29;90.43;98943.69;8366982;28;20037;-57
2023/01/14 17:02:23;;;;;;;0.20;0.20;;;;;;;13.27;91.03;98945.78;8384128;28;20101;-58
2023/01/14 17:06:24;;;;;;;0.90;0.63;;;;;;;13.21;91.43;98952.00;8370518;28;20037;-58
2023/01/14 17:10:24;;;;;;;0.77;0.47;;;;;;;13.31;90.99;98955.19;8355728;28;20065;-56
2023/01/14 17:14:28;;;;;;;0.70;0.30;;;;;;;13.34;91.43;98957.53;8354749;28;20068;-58
2023/01/14 17:18:28;;;;;;;1.80;0.40;;;;;;;13.29;92.56;98959.97;8355928;28;20395;-55
2023/01/14 17:22:29;;;;;;;0.45;0.30;;;;;;;13.27;92.79;98956.63;8354772;28;20045;-57
2023/01/14 17:26:30;;;;;;;0.82;0.30;;;;;;;13.29;93.03;98949.13;8355352;28;20486;-59
2023/01/14 17:30:31;;;;;;;0.50;0.25;;;;;;;13.36;93.06;98950.03;8353997;28;20402;-59
2023/01/14 17:34:32;;;;;;;0.20;0.20;;;;;;;13.36;93.58;98950.03;8357399;28;20049;-60
2023/01/14 17:38:33;;;;;;;0.73;0.30;;;;;;;13.21;95.31;98950.09;8356529;28;20044;-60
2023/01/14 17:42:33;;;;;;;0.17;0.10;;;;;;;13.21;95.81;98946.56;8357044;28;20119;-59
2023/01/14 17:46:34;;;;;;;0.20;0.20;;;;;;;13.24;95.62;98929.88;8355748;28;20461;-59
2023/01/14 17:50:35;;;;;;;0.38;0.25;;;;;;;13.18;96.40;98936.91;8353060;28;20093;-57
2023/01/14 17:54:37;;;;;;;0.40;0.20;;;;;;;13.26;95.67;98933.22;8352446;28;20048;-56
2023/01/14 17:58:37;;;;;;;0.17;0.10;;;;;;;13.36;94.98;98939.19;8352206;28;20553;-63
2023/01/14 18:02:38;;;;;;;0.32;0.20;;;;;;;13.41;94.77;98931.25;8356057;28;20309;-57
2023/01/14 18:06:38;;;;;;;0.10;0.10;;;;;;;13.43;94.22;98921.91;8351778;28;20045;-59
2023/01/14 18:10:40;;;;;;;0.63;0.10;;;;;;;13.43;94.27;98929.19;8352181;28;20112;-59
2023/01/14 18:14:40;;;;;;;0.20;0.10;;;;;;;13.36;93.77;98903.88;8350977;28;20063;-60
2023/01/14 18:18:41;;;;;;;1.02;0.30;;;;;;;13.49;93.52;98909.41;8344899;28;20052;-59
2023/01/14 18:22:41;;;;;;;0.57;0.32;;;;;;;13.49;93.50;98902.09;8349880;28;20028;-58
2023/01/14 18:26:42;;;;;;;5.50;3.33;;;;;;;13.48;93.62;98910.44;8352916;28;20040;-59
2023/01/14 18:30:42;;;;;;;1.40;0.60;;;;;;;13.44;94.74;98904.56;8352131;28;20037;-60
2023/01/14 18:34:43;;;;;;;0.22;0.22;;;;;;;13.35;95.89;98907.63;8353120;28;20037;-59
2023/01/14 18:38:43;;;;;;;0.20;0.17;;;;;;;13.23;98.01;98906.47;8354439;28;20075;-58
2023/01/14 18:42:44;;;;;;;0.90;0.20;;;;;;;13.18;98.85;98892.69;8332387;28;20037;-59
2023/01/14 18:46:46;;;;;;;0.45;0.10;;;;;;;13.16;98.72;98905.59;8339773;28;20041;-60
2023/01/14 18:50:47;;;;;;;0.52;0.52;;;;;;;13.19;98.13;98897.06;8351621;28;20045;-58
2023/01/14 18:54:47;;;;;;;0.08;0.08;;;;;;;13.27;97.34;98894.22;8351713;28;20110;-60
2023/01/14 18:58:49;;;;;;;0.52;0.20;;;;;;;13.29;97.36;98881.28;8353340;28;20087;-59
2023/01/14 19:02:49;;;;;;;0.55;0.20;;;;;;;13.18;98.06;98876.41;8351881;28;20175;-59
2023/01/14 19:06:50;;;;;;;0.50;0.20;;;;;;;13.24;97.72;98875.63;8349614;28;20056;-60
2023/01/14 19:10:57;;;;;;;0.30;0.30;;;;;;;13.38;96.55;98871.94;8351098;28;20112;-58
2023/01/14 19:14:57;;;;;;;0.25;0.20;;;;;;;13.42;96.58;98875.94;8351128;28;20149;-57
2023/01/14 19:18:58;;;;;;;1.25;0.30;;;;;;;13.49;96.52;98868.69;8351559;28;20041;-60
2023/01/14 19:22:58;;;;;;;1.23;0.40;;;;;;;13.48;96.82;98856.16;8352157;28;20114;-60
2023/01/14 19:26:59;;;;;;;0.40;0.20;;;;;;;13.65;95.50;98862.94;8352756;28;20102;-59
2023/01/14 19:31:02;;;;;;;0.50;0.20;;;;;;;13.65;95.46;98857.50;8351005;28;20045;-57
2023/01/14 19:35:02;;;;;;;0.35;0.20;;;;;;;13.64;95.78;98850.41;8349874;28;20152;-56
2023/01/14 19:39:03;;;;;;;0.10;0.10;;;;;;;13.61;96.20;98867.09;8351463;28;20036;-56
2023/01/14 19:43:07;;;;;;;0.25;0.20;;;;;;;13.58;97.00;98851.19;8351070;28;20444;-56
2023/01/14 19:47:07;;;;;;;0.28;0.20;;;;;;;13.58;97.40;98845.75;8350848;28;20529;-56
2023/01/14 19:51:12;;;;;;;1.50;0.20;;;;;;;13.48;99.23;98856.16;8350850;28;20106;-55
2023/01/14 19:55:13;;;;;;;0.60;0.20;;;;;;;13.40;100.00;98837.31;8349159;28;20124;-56
2023/01/14 19:59:13;;;;;;;0.20;0.20;;;;;;;13.32;100.00;98848.31;8349616;28;20044;-55
2023/01/14 20:03:14;;;;;;;0.20;0.15;;;;;;;13.30;100.00;98853.94;8351207;28;20147;-55
2023/01/14 20:07:14;;;;;;;0.20;0.10;;;;;;;13.27;100.00;98848.09;8350553;28;20067;-55